createdAt,value
2022-09-12T00:02:15.634Z,71.83
2022-09-12T00:17:17.799Z,72.51
2022-09-12T00:32:20.194Z,73.52
2022-09-12T00:47:31.879Z,74.96
2022-09-12T01:02:33.696Z,73.80
2022-09-12T01:18:05.962Z,76.67
2022-09-12T01:33:33.423Z,78.71
2022-09-12T01:49:01.467Z,79.53
2022-09-12T02:04:10.759Z,78.79
2022-09-12T02:19:18.792Z,81.09
2022-09-12T02:34:26.469Z,82.33
2022-09-12T02:49:28.354Z,84.11
2022-09-12T03:04:57.650Z,90.55
2022-09-12T03:20:35.082Z,88.44
2022-09-12T03:35:36.871Z,86.34
2022-09-12T03:50:38.694Z,86.12
2022-09-12T04:05:40.479Z,83.69
2022-09-12T04:20:43.086Z,82.32
2022-09-12T04:35:45.598Z,82.46
2022-09-12T04:50:47.419Z,82.58
2022-09-12T05:05:52.205Z,82.76
2022-09-12T05:20:56.651Z,82.18
2022-09-12T05:35:58.950Z,98.38
2022-09-12T05:51:02.765Z,100.00
2022-09-12T06:06:06.504Z,100.00
2022-09-12T06:21:13.002Z,100.00
2022-09-12T06:36:21.324Z,100.00
2022-09-12T06:51:23.651Z,100.00
2022-09-12T07:06:32.056Z,100.00
2022-09-12T07:21:40.660Z,100.00
2022-09-12T07:52:00.915Z,100.00
2022-09-12T08:07:02.778Z,100.00
2022-09-12T08:22:05.757Z,100.00
2022-09-12T08:37:07.571Z,100.00
2022-09-12T08:52:17.509Z,100.00
2022-09-12T09:07:50.502Z,100.00
2022-09-12T09:22:58.546Z,92.84
2022-09-12T09:38:24.803Z,84.27
2022-09-12T09:53:29.429Z,85.05
2022-09-12T10:08:37.855Z,81.50
2022-09-12T10:23:41.612Z,91.59
2022-09-12T10:38:58.144Z,88.99
2022-09-12T10:54:02.858Z,93.60
2022-09-12T11:09:25.147Z,82.25
2022-09-12T11:24:27.219Z,88.96
2022-09-12T11:39:52.278Z,73.87
2022-09-12T11:55:15.125Z,76.10
2022-09-12T12:10:40.962Z,84.00
2022-09-12T12:25:55.709Z,89.58
2022-09-12T12:41:19.543Z,79.98
2022-09-12T12:56:33.586Z,78.38
2022-09-12T13:11:41.750Z,81.80
2022-09-12T13:26:47.916Z,90.50
2022-09-12T13:42:08.210Z,85.83
2022-09-12T13:57:29.784Z,87.20
2022-09-12T14:12:36.401Z,93.48
2022-09-12T14:27:46.134Z,97.01
2022-09-12T14:42:53.025Z,98.69
2022-09-12T14:58:14.287Z,93.25
2022-09-12T15:13:26.054Z,100.00
2022-09-12T15:28:28.802Z,100.00
2022-09-12T15:43:30.579Z,100.00
2022-09-12T15:58:32.361Z,100.00
2022-09-12T16:13:34.333Z,100.00
2022-09-12T16:28:36.568Z,100.00
2022-09-12T16:43:38.807Z,100.00
2022-09-12T16:58:42.280Z,100.00
2022-09-12T17:14:07.854Z,100.00
2022-09-12T17:29:14.157Z,100.00
2022-09-12T17:44:16.415Z,100.00
2022-09-12T17:59:20.882Z,100.00
2022-09-12T18:14:23.436Z,100.00
2022-09-12T18:29:28.281Z,100.00
2022-09-12T18:44:30.176Z,100.00
2022-09-12T18:59:32.009Z,100.00
2022-09-12T19:14:33.927Z,100.00
2022-09-12T19:29:35.932Z,100.00
2022-09-12T19:44:38.417Z,100.00
2022-09-12T19:59:40.362Z,100.00
2022-09-12T20:14:42.353Z,100.00
2022-09-12T20:29:44.474Z,100.00
2022-09-12T20:44:46.255Z,100.00
2022-09-12T20:59:48.147Z,100.00
2022-09-12T21:14:50.069Z,100.00
2022-09-12T21:29:53.693Z,100.00
2022-09-12T21:44:55.541Z,100.00
2022-09-12T21:59:57.963Z,100.00
2022-09-12T22:14:59.875Z,100.00
2022-09-12T22:30:01.831Z,100.00
2022-09-12T22:45:05.369Z,100.00
2022-09-12T23:00:10.667Z,100.00
2022-09-12T23:15:12.568Z,100.00
2022-09-12T23:30:14.646Z,100.00
2022-09-12T23:45:16.794Z,100.00
